createdAt,value
2019-02-15T00:00:47.745Z,3.50
2019-02-15T00:05:51.446Z,3.50
2019-02-15T00:10:54.842Z,3.30
2019-02-15T00:15:58.242Z,3.10
2019-02-15T00:21:05.963Z,3.00
2019-02-15T00:26:09.715Z,2.90
2019-02-15T00:31:14.820Z,2.90
2019-02-15T00:36:18.266Z,2.80
2019-02-15T00:41:21.904Z,2.80
2019-02-15T00:46:29.621Z,3.10
2019-02-15T00:51:34.656Z,3.20
2019-02-15T00:56:45.398Z,3.10
2019-02-15T01:01:53.384Z,2.90
2019-02-15T01:07:16.742Z,2.60
2019-02-15T01:12:21.770Z,2.40
2019-02-15T01:17:25.476Z,2.10
2019-02-15T01:22:28.913Z,2.10
2019-02-15T01:32:38.957Z,1.90
2019-02-15T01:37:47.289Z,1.90
2019-02-15T01:42:52.650Z,1.80
2019-02-15T01:52:59.114Z,1.90
2019-02-15T01:58:02.511Z,1.90
2019-02-15T02:03:05.978Z,2.00
2019-02-15T02:13:14.882Z,2.40
2019-02-15T02:18:18.658Z,2.30
2019-02-15T02:23:22.053Z,2.30
2019-02-15T02:28:25.740Z,2.30
2019-02-15T02:38:32.567Z,2.60
2019-02-15T02:48:39.601Z,3.00
2019-02-15T02:53:42.993Z,3.10
2019-02-15T03:03:50.047Z,3.10
2019-02-15T03:19:00.299Z,2.80
2019-02-15T03:29:07.031Z,2.40
2019-02-15T03:34:11.563Z,2.20
2019-02-15T03:39:16.623Z,2.00
2019-02-15T03:44:22.541Z,2.20
2019-02-15T03:49:25.183Z,2.40
2019-02-15T03:54:28.914Z,2.60
2019-02-15T03:59:32.632Z,2.90
2019-02-15T04:14:42.883Z,2.70
2019-02-15T04:19:46.605Z,2.60
2019-02-15T04:29:53.738Z,2.90
2019-02-15T04:34:57.147Z,2.90
2019-02-15T04:50:08.972Z,2.60
2019-02-15T05:00:15.487Z,2.30
2019-02-15T05:05:19.129Z,2.30
2019-02-15T05:10:22.804Z,2.20
2019-02-15T05:20:29.328Z,2.20
2019-02-15T05:46:46.669Z,2.00
2019-02-15T05:51:50.059Z,1.70
2019-02-15T05:56:53.759Z,1.50
2019-02-15T06:17:16.015Z,2.60
2019-02-15T06:22:19.463Z,2.50
2019-02-15T06:32:26.556Z,2.50
2019-02-15T06:37:29.954Z,2.30
2019-02-15T06:42:33.359Z,2.50
2019-02-15T06:47:36.788Z,2.60
2019-02-15T06:52:40.244Z,2.70
2019-02-15T06:57:43.943Z,2.80
2019-02-15T07:08:10.613Z,3.10
2019-02-15T07:13:13.967Z,3.00
2019-02-15T07:23:21.123Z,3.00
2019-02-15T07:28:24.811Z,3.20
2019-02-15T07:43:35.155Z,4.10
2019-02-15T07:58:45.499Z,6.50
2019-02-15T08:03:49.219Z,7.50
2019-02-15T08:08:52.631Z,8.30
2019-02-15T08:24:02.472Z,9.50
2019-02-15T08:29:06.107Z,9.80
2019-02-15T08:34:09.812Z,10.00
2019-02-15T08:39:13.454Z,10.90
2019-02-15T08:44:17.169Z,11.50
2019-02-15T08:49:20.575Z,11.50
2019-02-15T09:14:36.836Z,12.00
2019-02-15T09:24:43.568Z,12.10
2019-02-15T09:29:47.015Z,12.40
2019-02-15T10:00:10.744Z,10.20
2019-02-15T10:05:14.138Z,10.20
2019-02-15T10:15:20.934Z,10.80
2019-02-15T10:20:24.699Z,11.10
2019-02-15T10:30:31.536Z,7.80
2019-02-15T10:35:35.251Z,11.10
2019-02-15T10:40:40.220Z,11.20
2019-02-15T10:45:43.663Z,11.30
2019-02-15T10:50:47.063Z,11.40
2019-02-15T11:00:53.535Z,11.70
2019-02-15T11:05:56.947Z,11.90
2019-02-15T11:16:03.804Z,12.20
2019-02-15T11:21:07.199Z,12.20
2019-02-15T11:46:23.238Z,12.90
2019-02-15T11:51:26.634Z,13.10
2019-02-15T11:56:30.111Z,13.20
2019-02-15T12:01:33.526Z,13.20
2019-02-15T12:11:40.246Z,13.60
2019-02-15T12:16:43.651Z,13.60
2019-02-15T12:21:47.170Z,13.80
2019-02-15T12:26:50.579Z,14.00
2019-02-15T12:31:54.275Z,14.10
2019-02-15T12:36:57.923Z,14.20
2019-02-15T12:52:08.173Z,14.50
2019-02-15T13:02:15.209Z,14.60
2019-02-15T13:07:18.937Z,14.80
2019-02-15T13:12:22.649Z,14.80
2019-02-15T13:17:26.055Z,14.90
2019-02-15T13:22:29.505Z,14.90
2019-02-15T13:27:32.908Z,15.00
2019-02-15T13:32:36.328Z,15.00
2019-02-15T13:57:52.870Z,15.20
2019-02-15T14:02:56.818Z,15.10
2019-02-15T14:13:03.300Z,15.30
2019-02-15T14:18:11.054Z,15.50
2019-02-15T14:23:14.464Z,15.30
2019-02-15T14:28:17.878Z,15.50
2019-02-15T14:33:21.608Z,15.60
2019-02-15T14:43:28.079Z,15.50
2019-02-15T14:48:31.803Z,15.50
2019-02-15T14:53:35.556Z,15.40
2019-02-15T14:58:38.962Z,15.30
2019-02-15T15:13:49.216Z,15.60
2019-02-15T15:18:52.943Z,15.60
2019-02-15T15:23:56.350Z,15.60
2019-02-15T15:28:59.754Z,15.50
2019-02-15T15:34:03.396Z,15.50
2019-02-15T15:44:10.176Z,15.40
2019-02-15T15:49:16.730Z,15.40
2019-02-15T15:54:18.992Z,15.40
2019-02-15T16:04:25.831Z,15.10
2019-02-15T16:09:29.544Z,15.00
2019-02-15T16:19:40.720Z,14.70
2019-02-15T16:24:41.390Z,14.60
2019-02-15T16:34:48.414Z,14.30
2019-02-15T16:39:51.827Z,14.10
2019-02-15T16:44:55.496Z,13.90
2019-02-15T17:00:10.503Z,13.20
2019-02-15T17:20:23.805Z,12.40
2019-02-15T17:25:27.203Z,12.20
2019-02-15T17:30:30.611Z,12.00
2019-02-15T17:35:34.371Z,11.80
2019-02-15T18:00:50.738Z,11.30
2019-02-15T18:05:54.151Z,11.00
2019-02-15T18:10:58.689Z,10.80
2019-02-15T18:21:05.914Z,10.40
2019-02-15T18:31:12.404Z,10.10
2019-02-15T18:36:16.734Z,10.00
2019-02-15T18:41:20.394Z,9.90
2019-02-15T18:46:23.791Z,9.80
2019-02-15T18:51:27.519Z,9.80
2019-02-15T18:56:30.974Z,9.60
2019-02-15T19:01:34.614Z,9.50
2019-02-15T19:06:38.993Z,9.30
2019-02-15T19:16:46.439Z,9.00
2019-02-15T19:21:49.851Z,9.00
2019-02-15T19:42:03.410Z,9.10
2019-02-15T19:52:10.239Z,9.20
2019-02-15T19:57:13.960Z,9.20
2019-02-15T20:02:17.378Z,9.30
2019-02-15T20:12:23.897Z,9.10
2019-02-15T20:17:27.295Z,9.00
2019-02-15T20:22:30.697Z,8.90
2019-02-15T20:27:34.094Z,8.80
2019-02-15T20:32:37.503Z,8.60
2019-02-15T20:42:44.895Z,8.40
2019-02-15T20:57:55.245Z,8.00
2019-02-15T21:02:58.668Z,8.00
2019-02-15T21:13:05.489Z,8.00
2019-02-15T21:18:09.220Z,8.00
2019-02-15T21:23:12.622Z,7.90
2019-02-15T21:28:16.347Z,7.90
2019-02-15T21:33:20.078Z,7.80
2019-02-15T21:38:23.791Z,7.80
2019-02-15T21:43:27.521Z,7.70
2019-02-15T21:48:31.236Z,7.70
2019-02-15T21:53:34.644Z,7.60
2019-02-15T21:58:38.043Z,7.50
2019-02-15T22:08:44.503Z,7.40
2019-02-15T22:13:48.043Z,7.50
2019-02-15T22:18:51.438Z,7.70
2019-02-15T22:23:54.834Z,7.80
2019-02-15T22:28:58.554Z,7.70
2019-02-15T22:39:06.123Z,7.30
2019-02-15T22:44:09.521Z,7.10
2019-02-15T22:54:16.364Z,7.40
2019-02-15T22:59:19.781Z,7.10
2019-02-15T23:04:23.483Z,6.80
2019-02-15T23:09:26.878Z,6.60
2019-02-15T23:19:33.731Z,6.00
2019-02-15T23:24:37.135Z,5.80
2019-02-15T23:29:40.868Z,5.60
2019-02-15T23:34:44.592Z,5.40
2019-02-15T23:44:51.310Z,5.70
2019-02-15T23:49:56.078Z,5.80
2019-02-15T23:54:59.788Z,5.60
